Time;durP1;ratioP1;P1;durP2;ratioP2;P2;SDS_P1;SDS_P2;PMS_P1;PMS_P2;Temp;Humidity;BMP_temperature;BMP_pressure;BME280_temperature;BME280_humidity;BME280_pressure;Samples;Min_cycle;Max_cycle;Signal;HPM_P1;HPM_P2
2024/02/18 00:01:40;;;;;;;13.30;4.77;;;;;;;;;;5051566;28;20182;-73
2024/02/18 00:04:06;;;;;;;9.87;3.90;;;;;;;;;;5050973;28;20184;-72
2024/02/18 00:06:31;;;;;;;8.90;4.43;;;;;;;;;;5032026;28;20248;-72
2024/02/18 00:08:56;;;;;;;8.93;4.07;;;;;;;;;;5051981;28;20197;-72
2024/02/18 00:11:22;;;;;;;7.53;3.53;;;;;;;;;;5049829;28;20373;-72
2024/02/18 00:13:47;;;;;;;10.57;3.83;;;;;;;;;;5049585;28;20174;-73
2024/02/18 00:16:12;;;;;;;8.52;3.72;;;;;;;;;;5048899;28;20280;-72
2024/02/18 00:18:37;;;;;;;8.70;3.92;;;;;;;;;;5045244;28;20194;-73
2024/02/18 00:21:03;;;;;;;11.50;4.50;;;;;;;;;;5050780;28;20196;-72
2024/02/18 00:23:28;;;;;;;7.50;4.50;;;;;;;;;;5043205;28;20283;-72
2024/02/18 00:25:54;;;;;;;8.70;3.77;;;;;;;;;;5048651;28;20187;-73
2024/02/18 00:28:19;;;;;;;9.43;4.90;;;;;;;;;;5025660;28;20538;-73
2024/02/18 00:30:49;;;;;;;22.50;4.57;;;;;;;;;;5025812;28;20204;-72
2024/02/18 00:33:14;;;;;;;11.50;4.50;;;;;;;;;;5021039;28;20204;-72
2024/02/18 00:35:39;;;;;;;16.87;4.13;;;;;;;;;;5042379;28;20618;-73
2024/02/18 00:38:04;;;;;;;6.53;4.65;;;;;;;;;;5042008;28;20612;-72
2024/02/18 00:40:29;;;;;;;11.65;3.85;;;;;;;;;;5047794;28;20194;-72
2024/02/18 00:42:55;;;;;;;9.52;3.97;;;;;;;;;;5035689;28;20228;-72
2024/02/18 00:45:20;;;;;;;6.75;3.85;;;;;;;;;;5052823;28;20173;-72
2024/02/18 00:47:45;;;;;;;7.37;3.67;;;;;;;;;;5052438;28;20272;-72
2024/02/18 00:50:10;;;;;;;8.87;4.57;;;;;;;;;;5051779;28;20205;-72
2024/02/18 00:52:36;;;;;;;10.93;4.77;;;;;;;;;;5050224;28;20166;-72
2024/02/18 00:55:01;;;;;;;7.63;4.43;;;;;;;;;;5033797;28;20280;-73
2024/02/18 00:57:26;;;;;;;8.68;4.55;;;;;;;;;;5018604;28;20243;-73
2024/02/18 00:59:51;;;;;;;10.93;5.00;;;;;;;;;;5022175;28;20701;-73
2024/02/18 01:02:16;;;;;;;9.68;4.40;;;;;;;;;;5033924;28;20181;-73
2024/02/18 01:04:42;;;;;;;8.77;4.40;;;;;;;;;;5034397;28;20554;-72
2024/02/18 01:07:08;;;;;;;16.33;6.32;;;;;;;;;;5052611;28;20633;-72
2024/02/18 01:09:33;;;;;;;7.63;4.50;;;;;;;;;;5052352;28;20213;-72
2024/02/18 01:11:58;;;;;;;8.30;3.50;;;;;;;;;;5047321;28;20209;-73
2024/02/18 01:14:23;;;;;;;11.48;4.60;;;;;;;;;;5033623;28;20261;-72
2024/02/18 01:16:49;;;;;;;7.03;4.07;;;;;;;;;;5043419;28;20169;-72
2024/02/18 01:19:14;;;;;;;7.88;3.83;;;;;;;;;;5050598;28;20287;-72
2024/02/18 01:21:39;;;;;;;10.23;3.85;;;;;;;;;;5052351;28;20266;-72
2024/02/18 01:24:05;;;;;;;7.55;4.20;;;;;;;;;;5048718;28;20182;-72
2024/02/18 01:26:30;;;;;;;8.80;4.32;;;;;;;;;;5048672;28;20188;-72
2024/02/18 01:28:55;;;;;;;7.90;4.18;;;;;;;;;;5047641;28;20205;-72
2024/02/18 01:31:20;;;;;;;8.90;5.00;;;;;;;;;;5035325;28;20190;-72
2024/02/18 01:33:46;;;;;;;7.40;4.07;;;;;;;;;;5044234;28;20227;-72
2024/02/18 01:36:11;;;;;;;9.35;4.18;;;;;;;;;;5051019;28;20173;-73
2024/02/18 01:38:36;;;;;;;7.97;3.70;;;;;;;;;;5052363;28;20193;-72
2024/02/18 01:41:02;;;;;;;9.48;3.95;;;;;;;;;;5046826;28;20676;-73
2024/02/18 01:43:27;;;;;;;10.02;4.57;;;;;;;;;;5050276;28;20184;-72
2024/02/18 01:45:52;;;;;;;8.07;3.90;;;;;;;;;;5032015;28;20265;-72
2024/02/18 01:48:18;;;;;;;9.00;3.63;;;;;;;;;;5041795;28;20174;-72
2024/02/18 01:50:44;;;;;;;7.78;3.90;;;;;;;;;;5044786;28;21135;-73
2024/02/18 01:53:10;;;;;;;4.13;3.35;;;;;;;;;;5051608;28;20181;-72
2024/02/18 01:55:35;;;;;;;6.68;4.15;;;;;;;;;;5043671;28;20178;-72
2024/02/18 01:58:02;;;;;;;7.45;3.20;;;;;;;;;;5044673;28;20238;-72
2024/02/18 02:00:28;;;;;;;7.00;3.35;;;;;;;;;;5044691;28;20209;-72
2024/02/18 02:02:53;;;;;;;12.40;5.10;;;;;;;;;;5048783;28;20256;-72
2024/02/18 02:05:19;;;;;;;15.57;4.30;;;;;;;;;;5046676;28;20730;-72
2024/02/18 02:07:47;;;;;;;13.73;4.18;;;;;;;;;;5046213;28;20178;-73
2024/02/18 02:10:12;;;;;;;6.63;3.58;;;;;;;;;;5046538;28;20202;-72
2024/02/18 02:12:38;;;;;;;8.35;3.53;;;;;;;;;;5033449;28;20187;-72
2024/02/18 02:15:04;;;;;;;6.50;3.92;;;;;;;;;;5038933;28;20174;-72
2024/02/18 02:17:29;;;;;;;8.00;4.50;;;;;;;;;;5047563;28;20273;-73
2024/02/18 02:19:55;;;;;;;8.25;3.72;;;;;;;;;;5048920;28;20198;-72
2024/02/18 02:22:20;;;;;;;6.90;4.05;;;;;;;;;;5029794;28;20186;-70
2024/02/18 02:24:45;;;;;;;6.18;3.28;;;;;;;;;;5037738;28;20182;-72
2024/02/18 02:27:12;;;;;;;10.95;3.97;;;;;;;;;;5029897;28;20185;-71
2024/02/18 02:29:38;;;;;;;7.82;3.33;;;;;;;;;;5047562;28;20198;-71
2024/02/18 02:32:03;;;;;;;11.75;4.05;;;;;;;;;;5044591;28;20206;-71
2024/02/18 02:34:28;;;;;;;6.70;3.67;;;;;;;;;;5050093;28;20196;-71
2024/02/18 02:36:53;;;;;;;9.70;3.92;;;;;;;;;;5042491;28;20189;-71
2024/02/18 02:39:19;;;;;;;8.27;3.63;;;;;;;;;;5051088;28;20193;-71
2024/02/18 02:41:44;;;;;;;7.47;4.30;;;;;;;;;;5022265;28;20201;-71
2024/02/18 02:44:09;;;;;;;8.13;3.50;;;;;;;;;;5045699;28;20186;-71
2024/02/18 02:46:34;;;;;;;8.15;3.10;;;;;;;;;;5049734;28;20189;-73
2024/02/18 02:48:59;;;;;;;6.05;3.80;;;;;;;;;;5116623;22;21811;-73
2024/02/18 02:51:25;;;;;;;8.95;3.90;;;;;;;;;;5066223;28;20278;-72
2024/02/18 02:53:50;;;;;;;11.13;3.78;;;;;;;;;;5059870;28;20203;-72
2024/02/18 02:56:15;;;;;;;9.68;3.25;;;;;;;;;;5052702;28;20188;-72
2024/02/18 02:58:40;;;;;;;11.65;4.00;;;;;;;;;;5048991;28;20552;-72
2024/02/18 03:01:05;;;;;;;9.43;2.80;;;;;;;;;;5042763;28;20231;-71
2024/02/18 03:03:31;;;;;;;9.38;2.90;;;;;;;;;;5028851;28;20212;-72
2024/02/18 03:05:56;;;;;;;9.35;3.45;;;;;;;;;;5047447;28;20628;-72
2024/02/18 03:08:21;;;;;;;10.23;3.85;;;;;;;;;;5042107;28;20186;-72
2024/02/18 03:10:47;;;;;;;7.23;2.93;;;;;;;;;;5048460;28;20259;-72
2024/02/18 03:13:12;;;;;;;9.85;2.83;;;;;;;;;;5042459;28;20193;-71
2024/02/18 03:15:37;;;;;;;12.15;3.83;;;;;;;;;;5044864;28;20227;-72
2024/02/18 03:18:05;;;;;;;5.03;3.00;;;;;;;;;;5044444;28;20556;-71
2024/02/18 03:20:32;;;;;;;7.90;3.00;;;;;;;;;;5043271;28;20647;-70
2024/02/18 03:22:57;;;;;;;6.28;3.15;;;;;;;;;;5031475;28;20536;-70
2024/02/18 03:25:22;;;;;;;8.73;3.15;;;;;;;;;;5040660;28;20185;-71
2024/02/18 03:27:47;;;;;;;9.52;2.80;;;;;;;;;;5043794;28;20173;-71
2024/02/18 03:30:13;;;;;;;4.50;3.35;;;;;;;;;;5045337;28;20205;-71
2024/02/18 03:32:38;;;;;;;9.57;3.03;;;;;;;;;;5029158;28;20179;-71
2024/02/18 03:35:04;;;;;;;6.63;2.50;;;;;;;;;;5042339;28;20184;-71
2024/02/18 03:37:29;;;;;;;2.60;2.30;;;;;;;;;;5045288;28;20239;-70
2024/02/18 03:39:54;;;;;;;4.18;2.80;;;;;;;;;;5042758;28;20296;-71
2024/02/18 03:42:20;;;;;;;5.23;2.73;;;;;;;;;;5037994;28;20185;-70
2024/02/18 03:44:45;;;;;;;6.63;2.60;;;;;;;;;;5038602;28;20223;-71
2024/02/18 03:47:10;;;;;;;4.83;2.40;;;;;;;;;;5041507;28;20185;-71
2024/02/18 03:49:36;;;;;;;4.13;2.77;;;;;;;;;;5041519;28;20212;-70
2024/02/18 03:52:01;;;;;;;17.63;2.70;;;;;;;;;;5029680;28;20213;-70
2024/02/18 03:54:26;;;;;;;5.97;2.20;;;;;;;;;;5032266;28;20273;-70
2024/02/18 03:56:51;;;;;;;8.47;3.30;;;;;;;;;;5049705;28;20629;-71
2024/02/18 03:59:17;;;;;;;9.20;2.53;;;;;;;;;;5025950;28;20660;-71
2024/02/18 04:01:42;;;;;;;5.10;2.27;;;;;;;;;;5039066;28;20182;-71
2024/02/18 04:04:08;;;;;;;8.53;2.63;;;;;;;;;;5044804;28;20255;-70
2024/02/18 04:06:33;;;;;;;7.88;2.78;;;;;;;;;;5045360;28;20182;-71
2024/02/18 04:08:58;;;;;;;4.27;2.47;;;;;;;;;;5041957;28;20224;-70
2024/02/18 04:11:23;;;;;;;4.65;2.25;;;;;;;;;;5045280;28;20198;-71
2024/02/18 04:13:49;;;;;;;7.27;2.10;;;;;;;;;;5049338;28;20189;-71
2024/02/18 04:16:14;;;;;;;4.17;2.33;;;;;;;;;;5028321;28;20573;-71
2024/02/18 04:18:39;;;;;;;5.67;2.47;;;;;;;;;;5047366;28;20208;-70
2024/02/18 04:21:04;;;;;;;7.47;2.07;;;;;;;;;;5037212;28;20207;-71
2024/02/18 04:23:29;;;;;;;3.47;2.23;;;;;;;;;;5041941;28;20178;-71
2024/02/18 04:25:55;;;;;;;5.00;2.00;;;;;;;;;;5047751;28;20182;-71
2024/02/18 04:28:20;;;;;;;7.17;2.30;;;;;;;;;;5035737;28;20876;-71
2024/02/18 04:30:45;;;;;;;5.27;2.73;;;;;;;;;;5030145;28;20240;-71
2024/02/18 04:33:10;;;;;;;5.63;2.37;;;;;;;;;;5044166;28;20204;-71
2024/02/18 04:35:35;;;;;;;3.53;2.60;;;;;;;;;;5028255;28;20187;-71
2024/02/18 04:38:01;;;;;;;9.47;2.63;;;;;;;;;;5042751;28;20268;-71
2024/02/18 04:40:26;;;;;;;5.83;2.50;;;;;;;;;;5042254;28;20199;-72
2024/02/18 04:42:51;;;;;;;11.10;3.20;;;;;;;;;;5049453;28;20563;-70
2024/02/18 04:45:16;;;;;;;8.57;2.60;;;;;;;;;;5047244;28;22913;-70
2024/02/18 04:47:41;;;;;;;3.00;2.20;;;;;;;;;;5048426;28;20166;-70
2024/02/18 04:50:08;;;;;;;5.87;2.20;;;;;;;;;;5046158;28;20295;-71
2024/02/18 04:52:34;;;;;;;6.50;2.47;;;;;;;;;;5049027;28;20615;-71
2024/02/18 04:55:00;;;;;;;5.90;2.83;;;;;;;;;;5045433;28;20180;-71
2024/02/18 04:57:25;;;;;;;8.37;3.27;;;;;;;;;;5051637;28;20567;-71
2024/02/18 04:59:50;;;;;;;7.97;2.63;;;;;;;;;;5049554;28;20236;-71
2024/02/18 05:02:15;;;;;;;5.97;2.67;;;;;;;;;;5050051;28;20228;-71
2024/02/18 05:04:40;;;;;;;6.47;2.77;;;;;;;;;;5049210;28;20189;-71
2024/02/18 05:07:06;;;;;;;11.83;2.63;;;;;;;;;;5052257;28;20623;-70
2024/02/18 05:09:31;;;;;;;4.77;2.67;;;;;;;;;;5046778;28;20752;-72
2024/02/18 05:11:57;;;;;;;2.50;2.00;;;;;;;;;;5044149;28;20775;-71
2024/02/18 05:14:22;;;;;;;7.50;2.90;;;;;;;;;;5050546;28;20197;-70
2024/02/18 05:16:47;;;;;;;5.37;2.90;;;;;;;;;;5052091;28;20641;-71
2024/02/18 05:19:13;;;;;;;6.47;1.80;;;;;;;;;;5048214;28;20229;-71
2024/02/18 05:21:39;;;;;;;8.30;2.73;;;;;;;;;;5049046;28;20182;-71
2024/02/18 05:24:05;;;;;;;2.73;2.07;;;;;;;;;;5042793;28;20335;-71
2024/02/18 05:26:30;;;;;;;8.93;2.83;;;;;;;;;;5048994;28;20197;-71
2024/02/18 05:28:55;;;;;;;5.97;2.23;;;;;;;;;;5047189;28;20205;-71
2024/02/18 05:31:22;;;;;;;5.67;2.73;;;;;;;;;;5048714;28;20573;-71
2024/02/18 05:33:48;;;;;;;6.03;2.83;;;;;;;;;;5042591;28;20231;-71
2024/02/18 05:36:13;;;;;;;6.13;2.47;;;;;;;;;;5033968;28;20264;-71
2024/02/18 05:38:40;;;;;;;9.03;3.07;;;;;;;;;;5026636;28;20186;-71
2024/02/18 05:41:05;;;;;;;5.50;3.10;;;;;;;;;;5049886;28;20199;-70
2024/02/18 05:43:30;;;;;;;8.20;3.37;;;;;;;;;;5031437;28;20190;-70
2024/02/18 05:45:55;;;;;;;11.90;3.00;;;;;;;;;;5046810;28;20551;-71
2024/02/18 05:48:21;;;;;;;8.20;2.80;;;;;;;;;;5042932;28;20261;-71
2024/02/18 05:50:46;;;;;;;8.47;3.47;;;;;;;;;;5045800;28;20591;-71
2024/02/18 05:53:12;;;;;;;5.77;3.37;;;;;;;;;;5043280;28;20661;-71
2024/02/18 05:55:37;;;;;;;10.73;3.40;;;;;;;;;;5042128;28;20182;-71
2024/02/18 05:58:03;;;;;;;5.47;2.33;;;;;;;;;;5045495;28;20181;-71
2024/02/18 06:00:28;;;;;;;4.53;2.37;;;;;;;;;;5050606;28;20204;-71
2024/02/18 06:02:53;;;;;;;6.83;2.90;;;;;;;;;;5046947;28;20181;-71
2024/02/18 06:05:19;;;;;;;6.17;3.00;;;;;;;;;;5042152;28;20189;-70
2024/02/18 06:07:45;;;;;;;6.43;2.97;;;;;;;;;;5046609;28;20228;-70
2024/02/18 06:10:10;;;;;;;8.93;2.87;;;;;;;;;;5032237;28;20201;-70
2024/02/18 06:12:35;;;;;;;6.53;3.10;;;;;;;;;;5045384;28;20232;-71
2024/02/18 06:15:01;;;;;;;8.17;3.17;;;;;;;;;;5028645;28;20256;-71
2024/02/18 06:17:26;;;;;;;8.03;2.90;;;;;;;;;;5037539;28;20166;-72
2024/02/18 06:19:51;;;;;;;4.07;2.53;;;;;;;;;;5043498;28;20684;-72
2024/02/18 06:22:16;;;;;;;11.00;3.03;;;;;;;;;;5043558;28;20275;-72
2024/02/18 06:24:43;;;;;;;9.10;2.90;;;;;;;;;;5044253;28;20215;-71
2024/02/18 06:27:08;;;;;;;7.27;2.83;;;;;;;;;;5044141;28;20232;-71
2024/02/18 06:29:33;;;;;;;6.07;2.93;;;;;;;;;;5046031;28;20309;-71
2024/02/18 06:31:58;;;;;;;9.07;3.20;;;;;;;;;;5041091;28;20241;-71
2024/02/18 06:34:24;;;;;;;6.30;3.10;;;;;;;;;;5039636;28;20175;-71
2024/02/18 06:36:49;;;;;;;5.33;3.40;;;;;;;;;;5046878;28;20181;-71
2024/02/18 06:39:14;;;;;;;12.30;3.40;;;;;;;;;;5030514;28;20224;-71
2024/02/18 06:41:39;;;;;;;5.43;2.50;;;;;;;;;;5042320;28;20609;-71
2024/02/18 06:44:04;;;;;;;6.20;2.90;;;;;;;;;;5043540;28;20271;-72
2024/02/18 06:46:30;;;;;;;5.40;3.30;;;;;;;;;;5031704;28;20178;-70
2024/02/18 06:48:55;;;;;;;11.07;3.37;;;;;;;;;;5028199;28;20672;-70
2024/02/18 06:51:21;;;;;;;5.80;2.50;;;;;;;;;;5038879;28;20237;-70
2024/02/18 06:53:46;;;;;;;7.93;3.13;;;;;;;;;;5045635;28;20166;-70
2024/02/18 06:56:12;;;;;;;8.20;2.77;;;;;;;;;;5039389;28;20675;-70
2024/02/18 06:58:37;;;;;;;3.40;2.40;;;;;;;;;;5046670;28;20180;-71
2024/02/18 07:01:02;;;;;;;9.10;3.00;;;;;;;;;;5041794;28;20190;-71
2024/02/18 07:03:27;;;;;;;6.80;3.47;;;;;;;;;;5046641;28;20181;-71
2024/02/18 07:05:52;;;;;;;7.43;2.53;;;;;;;;;;5044823;28;20189;-72
2024/02/18 07:08:18;;;;;;;6.00;3.00;;;;;;;;;;5047972;28;20541;-72
2024/02/18 07:10:43;;;;;;;3.80;2.50;;;;;;;;;;5048916;28;20205;-72
2024/02/18 07:13:08;;;;;;;5.33;2.73;;;;;;;;;;5044031;28;20606;-72
2024/02/18 07:15:33;;;;;;;8.37;2.73;;;;;;;;;;5046952;28;20174;-72
2024/02/18 07:17:59;;;;;;;7.13;2.90;;;;;;;;;;5039001;28;20181;-70
2024/02/18 07:20:25;;;;;;;6.30;2.90;;;;;;;;;;5025791;28;20198;-71
2024/02/18 07:22:50;;;;;;;3.90;2.47;;;;;;;;;;5045435;28;20188;-70
2024/02/18 07:25:15;;;;;;;5.40;2.50;;;;;;;;;;5048459;28;20177;-71
2024/02/18 07:27:41;;;;;;;5.70;2.50;;;;;;;;;;5045107;28;20183;-71
2024/02/18 07:30:06;;;;;;;7.97;3.20;;;;;;;;;;5045928;28;20236;-71
2024/02/18 07:32:31;;;;;;;13.17;2.70;;;;;;;;;;5045056;28;20254;-71
2024/02/18 07:34:56;;;;;;;3.67;2.23;;;;;;;;;;5047255;28;20182;-71
2024/02/18 07:37:22;;;;;;;3.03;2.20;;;;;;;;;;5042810;28;20185;-70
2024/02/18 07:39:47;;;;;;;11.77;3.77;;;;;;;;;;5044517;28;20221;-71
2024/02/18 07:42:13;;;;;;;6.83;2.30;;;;;;;;;;5031216;28;20178;-71
2024/02/18 07:44:38;;;;;;;7.37;2.43;;;;;;;;;;5050150;28;20208;-71
2024/02/18 07:47:03;;;;;;;4.20;2.33;;;;;;;;;;5048023;28;20188;-72
2024/02/18 07:49:28;;;;;;;7.53;3.00;;;;;;;;;;5032323;28;20217;-72
2024/02/18 07:51:54;;;;;;;7.83;2.50;;;;;;;;;;5045852;28;20205;-72
2024/02/18 07:54:19;;;;;;;8.87;2.80;;;;;;;;;;5047380;28;20256;-72
2024/02/18 07:56:45;;;;;;;3.77;2.50;;;;;;;;;;5034007;28;20175;-72
2024/02/18 07:59:11;;;;;;;5.47;2.37;;;;;;;;;;5030133;28;20205;-72
2024/02/18 08:01:36;;;;;;;7.70;2.60;;;;;;;;;;5044029;28;20621;-72
2024/02/18 08:04:01;;;;;;;4.63;2.50;;;;;;;;;;5048576;28;20181;-72
2024/02/18 08:06:29;;;;;;;7.20;2.77;;;;;;;;;;5047217;28;20185;-72
2024/02/18 08:08:54;;;;;;;11.90;2.67;;;;;;;;;;5045407;28;20863;-72
2024/02/18 08:11:19;;;;;;;11.77;2.67;;;;;;;;;;5045422;28;20209;-72
2024/02/18 08:13:44;;;;;;;8.63;2.73;;;;;;;;;;5048016;28;20600;-71
2024/02/18 08:16:10;;;;;;;8.20;3.00;;;;;;;;;;5022072;28;20178;-71
2024/02/18 08:18:35;;;;;;;10.33;2.80;;;;;;;;;;5037849;28;20192;-71
2024/02/18 08:21:00;;;;;;;5.30;2.83;;;;;;;;;;5049475;28;20177;-72
2024/02/18 08:23:25;;;;;;;8.17;2.67;;;;;;;;;;5034729;28;20680;-72
2024/02/18 08:25:50;;;;;;;9.83;2.63;;;;;;;;;;5050991;28;20239;-72
2024/02/18 08:28:16;;;;;;;13.47;2.73;;;;;;;;;;5053173;28;20181;-72
2024/02/18 08:30:41;;;;;;;5.60;2.40;;;;;;;;;;5053768;28;20355;-72
2024/02/18 08:33:06;;;;;;;5.30;2.77;;;;;;;;;;5053456;28;20174;-72
2024/02/18 08:35:31;;;;;;;8.13;2.87;;;;;;;;;;5047729;28;20243;-71
2024/02/18 08:37:57;;;;;;;7.43;2.57;;;;;;;;;;5048508;28;20184;-72
2024/02/18 08:40:22;;;;;;;6.53;2.80;;;;;;;;;;5052582;28;20194;-72
2024/02/18 08:42:47;;;;;;;9.13;3.73;;;;;;;;;;5053829;28;20169;-72
2024/02/18 08:45:13;;;;;;;7.07;3.17;;;;;;;;;;5053810;28;20230;-71
2024/02/18 08:47:38;;;;;;;6.13;2.50;;;;;;;;;;5030485;28;20566;-72
2024/02/18 08:50:41;;;;;;;9.13;3.90;;;;;;;;;;5079484;22;20395;-84
2024/02/18 08:53:12;;;;;;;5.33;2.50;;;;;;;;;;5049352;28;20205;-82
2024/02/18 08:58:04;;;;;;;7.93;2.80;;;;;;;;;;5039576;28;20218;-70
2024/02/18 09:00:29;;;;;;;8.37;2.70;;;;;;;;;;5027407;28;20282;-69
2024/02/18 09:02:55;;;;;;;11.17;2.80;;;;;;;;;;5027922;28;20193;-69
2024/02/18 09:05:22;;;;;;;6.10;2.40;;;;;;;;;;5019472;28;20649;-70
2024/02/18 09:07:47;;;;;;;7.40;2.60;;;;;;;;;;5028130;28;20179;-70
2024/02/18 09:10:12;;;;;;;6.90;3.17;;;;;;;;;;5014010;28;20194;-69
2024/02/18 09:12:37;;;;;;;9.03;3.00;;;;;;;;;;5017741;28;20179;-69
2024/02/18 09:15:03;;;;;;;5.20;3.10;;;;;;;;;;5023923;28;20229;-68
2024/02/18 09:17:28;;;;;;;6.13;2.97;;;;;;;;;;5019034;28;20175;-70
2024/02/18 09:19:53;;;;;;;7.40;2.63;;;;;;;;;;5021822;28;20198;-69
2024/02/18 09:22:18;;;;;;;7.30;2.70;;;;;;;;;;5019317;28;20178;-70
2024/02/18 09:24:43;;;;;;;5.80;3.10;;;;;;;;;;5026908;28;20187;-69
2024/02/18 09:27:09;;;;;;;6.07;3.37;;;;;;;;;;5023823;28;20178;-69
2024/02/18 09:29:34;;;;;;;7.57;2.80;;;;;;;;;;5018905;28;20203;-70
2024/02/18 09:31:59;;;;;;;11.07;3.67;;;;;;;;;;5029333;28;20233;-70
2024/02/18 09:34:24;;;;;;;6.77;3.13;;;;;;;;;;5013996;28;20179;-70
2024/02/18 09:36:50;;;;;;;9.00;3.00;;;;;;;;;;5016698;28;20181;-70
2024/02/18 09:39:15;;;;;;;8.97;2.87;;;;;;;;;;5021904;28;20195;-70
2024/02/18 09:41:44;;;;;;;4.63;3.07;;;;;;;;;;5025113;28;20201;-70
2024/02/18 09:44:09;;;;;;;6.37;3.47;;;;;;;;;;5008791;28;20210;-70
2024/02/18 09:46:36;;;;;;;8.40;3.00;;;;;;;;;;5024145;28;20262;-69
2024/02/18 09:49:02;;;;;;;9.43;3.77;;;;;;;;;;5007761;28;20544;-70
2024/02/18 09:51:27;;;;;;;8.57;3.33;;;;;;;;;;5009559;28;20285;-69
2024/02/18 09:53:54;;;;;;;8.83;3.20;;;;;;;;;;5028453;28;20171;-69
2024/02/18 09:56:19;;;;;;;7.70;3.10;;;;;;;;;;5020340;28;20240;-68
2024/02/18 09:58:45;;;;;;;7.23;3.10;;;;;;;;;;5022652;28;20174;-68
2024/02/18 10:01:11;;;;;;;7.07;3.27;;;;;;;;;;5025981;28;20233;-69
2024/02/18 10:03:37;;;;;;;8.03;4.00;;;;;;;;;;5023743;28;20262;-69
2024/02/18 10:06:02;;;;;;;9.07;3.67;;;;;;;;;;5011608;28;20277;-69
2024/02/18 10:08:28;;;;;;;6.30;3.20;;;;;;;;;;5021005;28;20205;-69
2024/02/18 10:10:53;;;;;;;6.00;3.57;;;;;;;;;;5018455;28;20681;-70
2024/02/18 10:13:21;;;;;;;8.87;3.57;;;;;;;;;;5017576;28;20552;-68
2024/02/18 10:15:48;;;;;;;5.50;3.27;;;;;;;;;;5019085;28;20215;-69
2024/02/18 10:18:14;;;;;;;14.43;4.13;;;;;;;;;;5007298;28;20206;-69
2024/02/18 10:20:40;;;;;;;11.40;3.43;;;;;;;;;;5019784;28;20289;-69
2024/02/18 10:23:05;;;;;;;6.23;3.47;;;;;;;;;;5023835;28;20670;-70
2024/02/18 10:25:31;;;;;;;4.77;3.20;;;;;;;;;;5025377;28;20190;-68
2024/02/18 10:27:57;;;;;;;9.77;2.80;;;;;;;;;;5024076;28;20179;-69
2024/02/18 10:30:22;;;;;;;12.20;3.70;;;;;;;;;;5024846;28;20202;-69
2024/02/18 10:32:47;;;;;;;8.33;3.77;;;;;;;;;;5029889;28;20166;-69
2024/02/18 10:35:13;;;;;;;8.17;3.57;;;;;;;;;;5027654;28;20175;-70
2024/02/18 10:37:39;;;;;;;13.97;3.87;;;;;;;;;;5011277;28;20311;-69
2024/02/18 10:40:19;;;;;;;8.50;3.73;;;;;;;;;;5021343;28;20206;-69
2024/02/18 10:42:54;;;;;;;9.43;3.60;;;;;;;;;;5011073;28;20178;-69
2024/02/18 10:45:21;;;;;;;7.20;4.27;;;;;;;;;;5023419;28;20220;-67
2024/02/18 10:47:50;;;;;;;9.77;4.33;;;;;;;;;;5027056;28;20605;-69
2024/02/18 10:50:17;;;;;;;7.50;3.33;;;;;;;;;;5020784;28;20205;-68
2024/02/18 10:52:46;;;;;;;8.83;4.10;;;;;;;;;;5025693;28;20592;-69
2024/02/18 10:55:15;;;;;;;6.73;3.77;;;;;;;;;;5025013;28;20174;-69
2024/02/18 10:57:53;;;;;;;12.67;4.47;;;;;;;;;;5023928;28;20193;-70
2024/02/18 11:00:19;;;;;;;7.23;4.33;;;;;;;;;;5022261;28;20263;-70
2024/02/18 11:02:48;;;;;;;6.97;3.77;;;;;;;;;;4996605;28;20305;-69
2024/02/18 11:05:14;;;;;;;13.10;4.63;;;;;;;;;;5026111;28;20530;-68
2024/02/18 11:07:40;;;;;;;8.80;3.80;;;;;;;;;;5025308;28;20187;-70
2024/02/18 11:10:06;;;;;;;5.60;3.00;;;;;;;;;;5022889;28;20677;-70
2024/02/18 11:12:33;;;;;;;11.03;3.80;;;;;;;;;;5018584;28;20629;-70
2024/02/18 11:14:59;;;;;;;7.23;3.73;;;;;;;;;;5019085;28;20554;-70
2024/02/18 11:17:24;;;;;;;8.63;4.37;;;;;;;;;;5020509;28;20229;-70
2024/02/18 11:19:50;;;;;;;6.90;3.63;;;;;;;;;;5020173;28;20202;-69
2024/02/18 11:22:15;;;;;;;10.33;4.00;;;;;;;;;;5021090;28;20678;-70
2024/02/18 11:24:41;;;;;;;10.60;4.53;;;;;;;;;;5017779;28;20196;-70
2024/02/18 11:27:06;;;;;;;12.27;4.17;;;;;;;;;;5005518;28;20216;-72
2024/02/18 11:29:33;;;;;;;8.27;4.50;;;;;;;;;;5019049;28;20206;-70
2024/02/18 11:31:58;;;;;;;11.67;3.90;;;;;;;;;;5016776;28;20202;-70
2024/02/18 11:34:23;;;;;;;8.23;4.27;;;;;;;;;;5019866;28;20226;-70
2024/02/18 11:36:48;;;;;;;8.73;3.87;;;;;;;;;;5019186;28;20175;-70
2024/02/18 11:39:14;;;;;;;4.90;3.97;;;;;;;;;;5022277;28;20574;-69
2024/02/18 11:41:39;;;;;;;8.03;3.73;;;;;;;;;;4998528;28;20304;-71
2024/02/18 11:44:09;;;;;;;7.00;3.77;;;;;;;;;;5006494;28;20257;-70
2024/02/18 11:46:37;;;;;;;7.03;3.80;;;;;;;;;;5017263;28;20196;-70
2024/02/18 11:49:03;;;;;;;5.90;3.50;;;;;;;;;;5001467;28;20182;-70
2024/02/18 11:51:28;;;;;;;9.17;3.70;;;;;;;;;;5015189;28;20704;-71
2024/02/18 11:53:55;;;;;;;10.10;3.67;;;;;;;;;;5014494;28;20179;-70
2024/02/18 11:56:20;;;;;;;6.30;4.50;;;;;;;;;;5019882;28;20202;-71
2024/02/18 11:58:46;;;;;;;5.87;3.63;;;;;;;;;;5008809;28;20201;-70
2024/02/18 12:01:12;;;;;;;6.33;3.80;;;;;;;;;;5017430;28;20246;-70
2024/02/18 12:03:37;;;;;;;5.97;3.80;;;;;;;;;;5014702;28;20267;-71
2024/02/18 12:06:03;;;;;;;7.43;3.50;;;;;;;;;;5022854;28;20577;-70
2024/02/18 12:08:31;;;;;;;6.03;3.17;;;;;;;;;;5022015;28;20191;-71
2024/02/18 12:11:00;;;;;;;7.97;3.50;;;;;;;;;;5005762;28;20681;-72
2024/02/18 12:13:26;;;;;;;8.43;4.10;;;;;;;;;;5017826;28;20665;-72
2024/02/18 12:15:51;;;;;;;7.37;3.17;;;;;;;;;;5020998;28;20183;-71
2024/02/18 12:18:17;;;;;;;7.70;2.90;;;;;;;;;;5018969;28;20291;-69
2024/02/18 12:20:47;;;;;;;4.77;2.60;;;;;;;;;;5020990;28;20210;-70
2024/02/18 12:23:12;;;;;;;4.23;2.93;;;;;;;;;;5003572;28;20182;-69
2024/02/18 12:25:38;;;;;;;4.40;3.40;;;;;;;;;;5024357;28;20344;-70
2024/02/18 12:28:03;;;;;;;3.73;2.70;;;;;;;;;;5020852;28;20252;-69
2024/02/18 12:30:28;;;;;;;3.87;2.50;;;;;;;;;;5009787;28;20229;-71
2024/02/18 12:32:54;;;;;;;6.40;2.80;;;;;;;;;;4999907;28;20182;-70
2024/02/18 12:35:20;;;;;;;6.77;2.90;;;;;;;;;;5025304;28;20265;-69
2024/02/18 12:37:45;;;;;;;5.73;2.33;;;;;;;;;;5007932;28;20170;-70
2024/02/18 12:40:13;;;;;;;9.17;3.10;;;;;;;;;;5023338;28;20190;-70
2024/02/18 12:42:38;;;;;;;6.00;2.70;;;;;;;;;;5019764;28;20217;-70
2024/02/18 12:45:04;;;;;;;6.83;2.60;;;;;;;;;;5023145;28;20229;-70
2024/02/18 12:47:32;;;;;;;4.03;2.97;;;;;;;;;;5019428;28;20627;-70
2024/02/18 12:50:01;;;;;;;3.30;2.37;;;;;;;;;;5022735;28;20212;-71
2024/02/18 12:52:26;;;;;;;3.57;2.23;;;;;;;;;;5018690;28;20203;-69
2024/02/18 12:55:01;;;;;;;5.43;2.40;;;;;;;;;;5022558;28;20197;-71
2024/02/18 12:57:27;;;;;;;5.93;2.60;;;;;;;;;;5006924;28;20658;-69
2024/02/18 12:59:52;;;;;;;4.97;2.13;;;;;;;;;;5001619;28;20209;-69
2024/02/18 13:02:18;;;;;;;5.70;2.23;;;;;;;;;;5020897;28;20225;-69
2024/02/18 13:04:50;;;;;;;5.07;2.90;;;;;;;;;;5019710;28;20182;-70
2024/02/18 13:07:17;;;;;;;3.77;2.80;;;;;;;;;;5022781;28;20190;-69
2024/02/18 13:09:42;;;;;;;3.23;2.60;;;;;;;;;;5026368;28;20203;-69
2024/02/18 13:12:09;;;;;;;3.30;2.70;;;;;;;;;;5010402;28;20210;-69
2024/02/18 13:14:34;;;;;;;4.47;3.10;;;;;;;;;;5022380;28;20179;-70
2024/02/18 13:16:59;;;;;;;5.60;2.73;;;;;;;;;;5021224;28;20201;-70
2024/02/18 13:19:25;;;;;;;3.90;3.20;;;;;;;;;;5020755;28;20206;-72
2024/02/18 13:21:50;;;;;;;4.20;3.17;;;;;;;;;;5023252;28;20663;-69
2024/02/18 13:24:16;;;;;;;5.20;3.50;;;;;;;;;;5024440;28;20178;-71
2024/02/18 13:26:41;;;;;;;6.13;3.43;;;;;;;;;;5019280;28;20190;-69
2024/02/18 13:29:07;;;;;;;6.40;3.93;;;;;;;;;;5023573;28;20182;-71
2024/02/18 13:31:32;;;;;;;6.37;4.03;;;;;;;;;;5017981;28;20214;-71
2024/02/18 13:33:57;;;;;;;6.17;3.93;;;;;;;;;;5024332;28;20261;-71
2024/02/18 13:36:23;;;;;;;6.37;4.70;;;;;;;;;;5020265;28;20175;-70
2024/02/18 13:38:48;;;;;;;4.83;3.93;;;;;;;;;;5019643;28;20675;-71
2024/02/18 13:41:13;;;;;;;7.33;4.73;;;;;;;;;;5027281;28;20198;-71
2024/02/18 13:43:38;;;;;;;6.63;4.47;;;;;;;;;;5003122;28;20210;-71
2024/02/18 13:46:04;;;;;;;8.60;4.63;;;;;;;;;;5022331;28;20190;-70
2024/02/18 13:48:31;;;;;;;6.23;5.43;;;;;;;;;;5002483;28;20249;-71
2024/02/18 13:50:56;;;;;;;6.70;4.73;;;;;;;;;;5022687;28;20736;-70
2024/02/18 13:53:21;;;;;;;9.37;4.90;;;;;;;;;;5021385;28;20213;-70
2024/02/18 13:55:47;;;;;;;6.97;5.50;;;;;;;;;;5020472;28;20269;-70
2024/02/18 13:58:12;;;;;;;5.50;4.90;;;;;;;;;;5027595;28;20175;-69
2024/02/18 14:00:37;;;;;;;5.03;4.53;;;;;;;;;;5023367;28;20197;-70
2024/02/18 14:03:03;;;;;;;7.67;5.93;;;;;;;;;;5025722;28;20174;-69
2024/02/18 14:05:28;;;;;;;8.57;6.23;;;;;;;;;;5019940;28;20182;-69
2024/02/18 14:07:53;;;;;;;7.77;4.43;;;;;;;;;;5027488;28;20244;-70
2024/02/18 14:10:19;;;;;;;4.53;4.13;;;;;;;;;;5018567;28;20206;-68
2024/02/18 14:12:48;;;;;;;5.23;4.27;;;;;;;;;;5022316;28;20209;-69
2024/02/18 14:15:13;;;;;;;5.93;4.10;;;;;;;;;;5020144;28;20178;-69
2024/02/18 14:17:39;;;;;;;3.30;2.97;;;;;;;;;;5026050;28;20178;-70
2024/02/18 14:20:05;;;;;;;3.27;2.90;;;;;;;;;;5019884;28;20214;-69
2024/02/18 14:22:30;;;;;;;4.57;3.22;;;;;;;;;;5023518;28;20178;-70
2024/02/18 14:24:57;;;;;;;5.63;3.20;;;;;;;;;;5020197;28;20179;-71
2024/02/18 14:27:23;;;;;;;7.03;3.53;;;;;;;;;;5007172;28;20201;-69
2024/02/18 14:29:48;;;;;;;4.33;3.37;;;;;;;;;;5026368;28;20682;-70
2024/02/18 14:32:13;;;;;;;3.30;3.00;;;;;;;;;;5023094;28;20229;-69
2024/02/18 14:34:38;;;;;;;3.70;3.40;;;;;;;;;;5020131;28;20198;-69